createdAt,value
2022-08-05T00:02:57.284Z,63.69
2022-08-05T00:06:51.960Z,64.14
2022-08-05T00:10:17.093Z,63.97
2022-08-05T00:13:53.245Z,63.76
2022-08-05T00:17:27.937Z,63.57
2022-08-05T00:21:04.403Z,63.34
2022-08-05T00:24:42.434Z,63.31
2022-08-05T00:28:21.219Z,63.46
2022-08-05T00:32:15.280Z,63.57
2022-08-05T00:35:37.359Z,63.54
2022-08-05T00:39:36.930Z,63.68
2022-08-05T00:43:07.703Z,64.03
2022-08-05T00:47:02.066Z,64.61
2022-08-05T00:50:26.022Z,65.22
2022-08-05T00:54:03.238Z,65.18
2022-08-05T00:57:58.582Z,65.08
2022-08-05T01:01:42.057Z,65.05
2022-08-05T01:05:10.049Z,64.88
2022-08-05T01:08:44.299Z,64.97
2022-08-05T01:12:40.113Z,64.95
2022-08-05T01:16:33.844Z,65.17
2022-08-05T01:20:20.363Z,66.09
2022-08-05T01:24:35.177Z,66.11
2022-08-05T01:28:03.568Z,65.99
2022-08-05T01:31:55.451Z,65.82
2022-08-05T01:35:51.966Z,65.44
2022-08-05T01:39:05.204Z,65.27
2022-08-05T01:42:44.422Z,65.08
2022-08-05T01:46:42.280Z,65.17
2022-08-05T01:50:15.002Z,65.21
2022-08-05T01:53:57.500Z,65.79
2022-08-05T01:58:09.315Z,66.16
2022-08-05T02:01:40.604Z,66.27
2022-08-05T02:05:11.861Z,66.09
2022-08-05T02:08:44.874Z,65.90
2022-08-05T02:12:33.096Z,65.87
2022-08-05T02:16:04.613Z,66.09
2022-08-05T02:19:47.026Z,66.55
2022-08-05T02:23:13.539Z,67.14
2022-08-05T02:26:54.731Z,66.91
2022-08-05T02:30:27.958Z,66.72
2022-08-05T02:34:06.213Z,66.60
2022-08-05T02:37:59.112Z,66.57
2022-08-05T02:41:28.958Z,66.63
2022-08-05T02:45:28.495Z,66.43
2022-08-05T02:49:11.200Z,66.96
2022-08-05T02:52:33.750Z,67.83
2022-08-05T02:56:29.008Z,67.84
2022-08-05T02:59:54.165Z,67.51
2022-08-05T03:04:03.146Z,67.38
2022-08-05T03:08:00.457Z,67.05
2022-08-05T03:11:57.412Z,66.87
2022-08-05T03:15:26.285Z,66.83
2022-08-05T03:19:17.113Z,67.21
2022-08-05T03:22:50.044Z,67.53
2022-08-05T03:26:45.785Z,68.16
2022-08-05T03:30:34.569Z,68.39
2022-08-05T03:34:15.409Z,68.17
2022-08-05T03:37:57.361Z,68.18
2022-08-05T03:41:19.689Z,68.15
2022-08-05T03:44:56.958Z,68.18
2022-08-05T03:48:35.654Z,68.39
2022-08-05T03:52:50.073Z,68.71
2022-08-05T03:56:34.776Z,69.09
2022-08-05T04:00:01.779Z,69.38
2022-08-05T04:03:38.038Z,69.65
2022-08-05T04:07:11.687Z,70.06
2022-08-05T04:10:47.614Z,70.54
2022-08-05T04:14:30.513Z,70.81
2022-08-05T04:18:06.755Z,71.42
2022-08-05T04:22:05.736Z,71.45
2022-08-05T04:25:24.174Z,71.28
2022-08-05T04:29:07.150Z,71.13
2022-08-05T04:32:58.673Z,71.24
2022-08-05T04:36:45.843Z,70.99
2022-08-05T04:40:22.109Z,71.37
2022-08-05T04:44:09.022Z,71.74
2022-08-05T04:47:38.558Z,71.59
2022-08-05T04:51:30.605Z,71.31
2022-08-05T04:55:14.517Z,71.44
2022-08-05T04:58:37.515Z,71.55
2022-08-05T05:02:37.655Z,71.54
2022-08-05T05:06:39.187Z,71.25
2022-08-05T05:09:39.563Z,71.32
2022-08-05T05:13:18.183Z,70.90
2022-08-05T05:16:52.992Z,70.74
2022-08-05T05:20:29.953Z,70.82
2022-08-05T05:24:58.005Z,71.21
2022-08-05T05:28:09.297Z,71.33
2022-08-05T05:31:46.357Z,71.43
2022-08-05T05:35:40.073Z,71.21
2022-08-05T05:39:23.439Z,70.82
2022-08-05T05:42:47.092Z,70.61
2022-08-05T05:46:22.433Z,70.57
2022-08-05T05:50:01.443Z,70.72
2022-08-05T05:53:58.736Z,70.94
2022-08-05T05:57:21.777Z,70.92
2022-08-05T06:01:02.057Z,70.68
2022-08-05T06:04:35.284Z,70.47
2022-08-05T06:08:15.043Z,70.09
2022-08-05T06:12:01.899Z,69.87
2022-08-05T06:16:29.067Z,69.84
2022-08-05T06:19:26.100Z,70.05
2022-08-05T06:22:58.532Z,70.14
2022-08-05T06:26:35.102Z,69.55
2022-08-05T06:30:20.007Z,69.16
2022-08-05T06:34:07.338Z,68.43
2022-08-05T06:37:56.480Z,68.29
2022-08-05T06:41:34.803Z,68.14
2022-08-05T06:45:45.055Z,67.99
2022-08-05T06:50:01.565Z,67.84
2022-08-05T06:53:11.573Z,67.00
2022-08-05T06:56:54.939Z,66.86
2022-08-05T07:00:27.969Z,66.47
2022-08-05T07:04:23.714Z,66.16
2022-08-05T07:07:48.966Z,65.93
2022-08-05T07:11:25.516Z,64.88
2022-08-05T07:15:34.511Z,62.89
2022-08-05T07:19:38.942Z,61.72
2022-08-05T07:23:02.746Z,61.78
2022-08-05T07:26:41.400Z,62.18
2022-08-05T07:30:27.292Z,61.78
2022-08-05T07:33:53.194Z,61.66
2022-08-05T07:37:36.759Z,61.66
2022-08-05T07:42:06.923Z,61.68
2022-08-05T07:44:52.927Z,61.79
2022-08-05T07:49:03.025Z,60.70
2022-08-05T07:52:12.539Z,58.88
2022-08-05T07:57:01.306Z,59.00
2022-08-05T08:00:11.363Z,59.52
2022-08-05T08:03:53.344Z,59.59
2022-08-05T08:07:15.311Z,59.41
2022-08-05T08:10:52.065Z,58.97
2022-08-05T08:14:47.586Z,58.18
2022-08-05T08:18:13.984Z,58.54
2022-08-05T08:21:46.283Z,58.12
2022-08-05T08:25:26.717Z,56.99
2022-08-05T08:29:21.960Z,56.55
2022-08-05T08:32:51.163Z,56.47
2022-08-05T08:36:38.161Z,56.38
2022-08-05T08:40:05.190Z,56.10
2022-08-05T08:45:19.090Z,55.72
2022-08-05T08:48:06.003Z,55.67
2022-08-05T08:52:02.183Z,54.13
2022-08-05T08:54:55.291Z,53.67
2022-08-05T08:58:52.125Z,54.18
2022-08-05T09:02:19.497Z,54.16
2022-08-05T09:06:11.110Z,53.16
2022-08-05T09:09:53.578Z,52.81
2022-08-05T09:13:19.900Z,53.08
2022-08-05T09:16:53.502Z,52.78
2022-08-05T09:20:37.290Z,52.71
2022-08-05T09:24:10.199Z,52.25
2022-08-05T09:28:03.830Z,52.07
2022-08-05T09:32:41.354Z,52.36
2022-08-05T09:36:03.637Z,50.48
2022-08-05T09:39:55.981Z,49.53
2022-08-05T09:43:40.526Z,48.84
2022-08-05T09:47:15.447Z,48.53
2022-08-05T09:50:44.668Z,48.40
2022-08-05T09:54:30.068Z,48.22
2022-08-05T09:57:58.723Z,47.40
2022-08-05T10:01:35.466Z,47.80
2022-08-05T10:05:32.676Z,47.49
2022-08-05T10:09:24.952Z,47.07
2022-08-05T10:12:53.915Z,46.57
2022-08-05T10:16:53.151Z,46.84
2022-08-05T10:20:18.225Z,46.72
2022-08-05T10:23:59.208Z,46.46
2022-08-05T10:28:09.548Z,43.57
2022-08-05T10:32:47.699Z,42.51
2022-08-05T10:35:00.902Z,41.62
2022-08-05T10:38:36.467Z,41.39
2022-08-05T10:42:32.410Z,41.71
2022-08-05T10:46:19.273Z,41.26
2022-08-05T10:50:31.834Z,41.37
2022-08-05T10:53:51.404Z,41.57
2022-08-05T10:57:30.967Z,41.15
2022-08-05T11:01:07.246Z,40.67
2022-08-05T11:04:54.573Z,40.81
2022-08-05T11:08:37.362Z,40.08
2022-08-05T11:12:03.270Z,41.11
2022-08-05T11:16:47.944Z,40.50
2022-08-05T11:20:17.545Z,39.89
2022-08-05T11:24:29.714Z,38.08
2022-08-05T11:28:08.916Z,38.52
2022-08-05T11:31:58.205Z,38.44
2022-08-05T11:36:07.627Z,38.83
2022-08-05T11:39:50.117Z,39.12
2022-08-05T11:44:06.621Z,38.77
2022-08-05T11:47:49.655Z,38.77
2022-08-05T11:51:14.663Z,39.06
2022-08-05T11:54:58.527Z,37.14
2022-08-05T11:58:53.316Z,36.70
2022-08-05T12:02:30.257Z,37.11
2022-08-05T12:05:58.603Z,35.38
2022-08-05T12:09:38.566Z,34.96
2022-08-05T12:13:28.009Z,34.97
2022-08-05T12:18:00.582Z,35.38
2022-08-05T12:20:50.053Z,35.51
2022-08-05T12:24:26.784Z,34.49
2022-08-05T12:28:38.191Z,34.32
2022-08-05T12:32:01.862Z,33.38
2022-08-05T12:35:39.854Z,33.27
2022-08-05T12:39:37.353Z,33.52
2022-08-05T12:43:21.284Z,33.06
2022-08-05T12:47:05.247Z,31.44
2022-08-05T12:50:27.123Z,31.04
2022-08-05T12:54:04.750Z,31.09
2022-08-05T12:58:38.494Z,32.40
2022-08-05T13:02:01.314Z,31.86
2022-08-05T13:05:26.623Z,31.69
2022-08-05T13:09:10.398Z,31.90
2022-08-05T13:12:57.290Z,30.14
2022-08-05T13:16:56.383Z,31.12
2022-08-05T13:20:23.741Z,30.37
2022-08-05T13:23:55.041Z,30.60
2022-08-05T13:27:44.158Z,29.88
2022-08-05T13:31:14.292Z,30.62
2022-08-05T13:34:51.337Z,30.06
2022-08-05T13:38:30.838Z,28.81
2022-08-05T13:42:04.050Z,28.61
2022-08-05T13:45:43.242Z,28.82
2022-08-05T13:49:16.695Z,28.00
2022-08-05T13:52:53.554Z,28.48
2022-08-05T13:56:30.344Z,28.65
2022-08-05T14:00:26.769Z,28.74
2022-08-05T14:04:09.851Z,27.65
2022-08-05T14:08:00.205Z,28.05
2022-08-05T14:11:22.071Z,29.01
2022-08-05T14:14:57.961Z,29.14
2022-08-05T14:18:34.558Z,29.18
2022-08-05T14:22:34.539Z,28.21
2022-08-05T14:25:57.976Z,28.23
2022-08-05T14:29:34.373Z,28.38
2022-08-05T14:33:09.937Z,27.37
2022-08-05T14:36:48.673Z,26.37
2022-08-05T14:40:24.220Z,27.02
2022-08-05T14:44:09.861Z,27.32
2022-08-05T14:48:05.750Z,27.39
2022-08-05T14:51:26.468Z,26.92
2022-08-05T14:55:01.770Z,27.58
2022-08-05T14:58:39.143Z,27.49
2022-08-05T15:02:34.254Z,26.09
2022-08-05T15:06:06.988Z,26.09
2022-08-05T15:09:51.465Z,25.87
2022-08-05T15:13:16.422Z,25.25
2022-08-05T15:17:44.678Z,25.68
2022-08-05T15:21:13.947Z,25.28
2022-08-05T15:24:57.719Z,24.33
2022-08-05T15:28:19.780Z,24.28
2022-08-05T15:31:56.091Z,24.94
2022-08-05T15:35:36.056Z,24.65
2022-08-05T15:40:57.418Z,24.36
2022-08-05T15:43:09.169Z,23.68
2022-08-05T15:46:57.356Z,23.72
2022-08-05T15:50:19.389Z,24.39
2022-08-05T15:54:15.251Z,23.66
2022-08-05T15:57:57.104Z,23.24
2022-08-05T16:01:20.199Z,23.87
2022-08-05T16:04:56.151Z,24.19
2022-08-05T16:08:32.585Z,24.47
2022-08-05T16:12:11.409Z,24.66
2022-08-05T16:15:46.041Z,25.17
2022-08-05T16:20:03.172Z,25.24
2022-08-05T16:23:08.406Z,26.16
2022-08-05T16:26:56.478Z,26.49
2022-08-05T16:30:38.472Z,26.09
2022-08-05T16:34:00.744Z,27.65
2022-08-05T16:38:16.289Z,29.17
2022-08-05T16:42:12.096Z,30.40
2022-08-05T16:46:03.929Z,31.44
2022-08-05T16:49:11.664Z,32.51
2022-08-05T16:52:56.564Z,33.00
2022-08-05T16:56:18.724Z,33.48
2022-08-05T17:00:04.379Z,33.87
2022-08-05T17:03:32.328Z,33.94
2022-08-05T17:07:11.625Z,34.51
2022-08-05T17:11:04.971Z,34.90
2022-08-05T17:14:37.698Z,35.53
2022-08-05T17:18:26.811Z,36.30
2022-08-05T17:21:51.589Z,36.36
2022-08-05T17:25:40.234Z,36.37
2022-08-05T17:29:07.321Z,36.64
2022-08-05T17:32:42.177Z,36.89
2022-08-05T17:36:33.598Z,37.26
2022-08-05T17:40:17.750Z,37.75
2022-08-05T17:43:47.218Z,38.38
2022-08-05T17:47:15.964Z,39.03
2022-08-05T17:50:53.086Z,39.58
2022-08-05T17:54:29.815Z,39.98
2022-08-05T17:58:12.772Z,40.38
2022-08-05T18:01:50.470Z,40.86
2022-08-05T18:05:20.405Z,41.43
2022-08-05T18:08:57.103Z,41.75
2022-08-05T18:12:33.697Z,41.95
2022-08-05T18:16:13.680Z,42.26
2022-08-05T18:19:51.402Z,42.50
2022-08-05T18:23:45.827Z,42.85
2022-08-05T18:27:12.442Z,43.46
2022-08-05T18:30:50.838Z,43.83
2022-08-05T18:34:22.895Z,44.29
2022-08-05T18:38:02.314Z,44.73
2022-08-05T18:41:55.147Z,45.15
2022-08-05T18:45:21.779Z,46.02
2022-08-05T18:49:21.136Z,46.36
2022-08-05T18:53:03.390Z,47.11
2022-08-05T18:56:35.952Z,47.57
2022-08-05T19:00:20.292Z,48.00
2022-08-05T19:04:12.238Z,48.44
2022-08-05T19:07:45.613Z,48.70
2022-08-05T19:11:11.703Z,48.73
2022-08-05T19:15:00.976Z,49.03
2022-08-05T19:18:26.290Z,49.29
2022-08-05T19:22:03.849Z,49.50
2022-08-05T19:25:43.705Z,49.74
2022-08-05T19:29:16.842Z,49.82
2022-08-05T19:32:53.653Z,50.04
2022-08-05T19:36:30.208Z,50.28
2022-08-05T19:40:10.458Z,50.48
2022-08-05T19:44:06.429Z,50.62
2022-08-05T19:47:26.301Z,50.76
2022-08-05T19:52:04.498Z,51.23
2022-08-05T19:55:06.811Z,51.26
2022-08-05T19:59:51.185Z,51.42
2022-08-05T20:03:05.363Z,51.59
2022-08-05T20:06:36.039Z,51.68
2022-08-05T20:10:13.452Z,52.03
2022-08-05T20:13:58.634Z,52.35
2022-08-05T20:17:29.247Z,52.49
2022-08-05T20:21:07.209Z,52.48
2022-08-05T20:24:42.149Z,52.64
2022-08-05T20:28:18.701Z,52.91
2022-08-05T20:32:14.537Z,52.95
2022-08-05T20:35:56.246Z,53.45
2022-08-05T20:39:21.032Z,53.61
2022-08-05T20:42:59.972Z,54.03
2022-08-05T20:46:34.503Z,54.32
2022-08-05T20:50:11.509Z,54.50
2022-08-05T20:53:55.256Z,54.86
2022-08-05T20:57:43.364Z,55.08
2022-08-05T21:01:07.456Z,55.36
2022-08-05T21:05:05.060Z,55.83
2022-08-05T21:08:50.081Z,56.43
2022-08-05T21:12:33.343Z,57.33
2022-08-05T21:15:54.990Z,57.77
2022-08-05T21:19:47.422Z,58.33
2022-08-05T21:23:37.038Z,58.71
2022-08-05T21:26:59.720Z,58.78
2022-08-05T21:30:35.823Z,58.55
2022-08-05T21:34:32.992Z,58.77
2022-08-05T21:37:57.919Z,58.98
2022-08-05T21:42:01.173Z,59.28
2022-08-05T21:45:38.231Z,59.34
2022-08-05T21:49:11.828Z,59.55
2022-08-05T21:52:51.522Z,59.68
2022-08-05T21:56:53.397Z,59.94
2022-08-05T22:00:51.173Z,60.65
2022-08-05T22:04:13.628Z,61.11
2022-08-05T22:07:58.364Z,61.81
2022-08-05T22:11:46.909Z,62.15
2022-08-05T22:15:10.918Z,62.04
2022-08-05T22:18:49.220Z,62.08
2022-08-05T22:22:26.825Z,61.98
2022-08-05T22:26:17.962Z,61.92
2022-08-05T22:29:43.565Z,62.01
2022-08-05T22:33:58.407Z,62.09
2022-08-05T22:37:22.394Z,62.71
2022-08-05T22:40:50.039Z,63.16
2022-08-05T22:44:21.582Z,63.70
2022-08-05T22:48:16.895Z,64.24
2022-08-05T22:52:04.611Z,64.08
2022-08-05T22:55:56.450Z,64.17
2022-08-05T22:59:45.010Z,64.31
2022-08-05T23:03:58.195Z,64.32
2022-08-05T23:07:13.160Z,64.29
2022-08-05T23:10:54.646Z,64.48
2022-08-05T23:14:38.857Z,64.92
2022-08-05T23:18:29.515Z,65.35
2022-08-05T23:21:54.921Z,65.72
2022-08-05T23:25:51.589Z,65.69
2022-08-05T23:29:15.691Z,65.59
2022-08-05T23:33:16.326Z,65.81
2022-08-05T23:36:45.027Z,65.67
2022-08-05T23:40:40.077Z,65.80
2022-08-05T23:44:05.915Z,66.01
2022-08-05T23:47:47.734Z,66.45
2022-08-05T23:51:17.727Z,66.86
2022-08-05T23:55:13.425Z,67.37
2022-08-05T23:58:35.120Z,67.20
